Time;durP1;ratioP1;P1;durP2;ratioP2;P2;SDS_P1;SDS_P2;PMS_P1;PMS_P2;Temp;Humidity;BMP_temperature;BMP_pressure;BME280_temperature;BME280_humidity;BME280_pressure;Samples;Min_cycle;Max_cycle;Signal;HPM_P1;HPM_P2
2021/05/11 00:01:08;;;;;;;4.68;1.50;;;15.80;99.90;;;;;;5100226;28;20657;-83
2021/05/11 00:03:35;;;;;;;3.33;1.17;;;15.70;99.90;;;;;;5093068;28;20517;-83
2021/05/11 00:06:02;;;;;;;3.60;1.15;;;15.70;99.90;;;;;;5084113;28;20061;-83
2021/05/11 00:08:29;;;;;;;3.80;1.25;;;15.60;99.90;;;;;;5080892;28;20043;-84
2021/05/11 00:10:55;;;;;;;2.08;1.10;;;15.60;99.90;;;;;;5100650;28;20042;-84
2021/05/11 00:13:20;;;;;;;2.88;1.25;;;15.60;99.90;;;;;;5093246;28;20024;-83
2021/05/11 00:15:48;;;;;;;2.85;1.15;;;15.50;99.90;;;;;;5109459;27;20044;-83
2021/05/11 00:18:14;;;;;;;3.83;1.52;;;15.50;99.90;;;;;;5091721;28;20071;-83
2021/05/11 00:20:40;;;;;;;6.47;1.65;;;15.50;99.90;;;;;;5102957;27;20073;-84
2021/05/11 00:23:06;;;;;;;2.75;1.27;;;15.40;99.90;;;;;;5099004;28;20043;-84
2021/05/11 00:25:33;;;;;;;4.65;1.40;;;15.40;99.90;;;;;;5110672;28;20027;-84
2021/05/11 00:27:59;;;;;;;2.60;1.60;;;15.40;99.90;;;;;;5110654;28;20092;-84
2021/05/11 00:30:26;;;;;;;3.20;1.27;;;15.30;99.90;;;;;;5075248;28;20044;-83
2021/05/11 00:32:53;;;;;;;3.47;1.30;;;15.30;99.90;;;;;;5087679;27;20539;-83
2021/05/11 00:35:21;;;;;;;4.22;1.55;;;15.30;99.90;;;;;;5096473;28;20062;-83
2021/05/11 00:37:46;;;;;;;2.28;1.20;;;15.30;99.90;;;;;;5108499;27;20131;-84
2021/05/11 00:40:12;;;;;;;4.15;1.65;;;15.20;99.90;;;;;;5109846;28;20114;-83
2021/05/11 00:42:38;;;;;;;4.80;1.48;;;15.20;99.90;;;;;;5102200;28;20028;-83
2021/05/11 00:45:06;;;;;;;5.10;1.40;;;15.20;99.90;;;;;;5106258;27;20116;-84
2021/05/11 00:47:32;;;;;;;7.10;1.50;;;15.20;99.90;;;;;;5094390;28;20073;-83
2021/05/11 00:49:58;;;;;;;4.88;1.80;;;15.10;99.90;;;;;;5091895;28;20127;-83
2021/05/11 00:52:24;;;;;;;5.88;1.70;;;15.10;99.90;;;;;;5074894;28;20492;-83
2021/05/11 00:54:50;;;;;;;4.05;1.73;;;15.10;99.90;;;;;;5091773;28;20042;-84
2021/05/11 00:57:17;;;;;;;3.50;1.63;;;15.00;99.90;;;;;;5109873;28;20086;-83
2021/05/11 00:59:43;;;;;;;5.13;2.40;;;15.00;99.90;;;;;;5108106;27;20036;-83
2021/05/11 01:02:10;;;;;;;3.58;1.65;;;15.00;99.90;;;;;;5093605;28;20038;-83
2021/05/11 01:04:36;;;;;;;5.22;2.33;;;15.00;99.90;;;;;;5092652;28;20032;-83
2021/05/11 01:07:05;;;;;;;6.13;2.00;;;14.90;99.90;;;;;;5096658;28;20070;-83
2021/05/11 01:09:32;;;;;;;5.43;2.10;;;14.80;99.90;;;;;;5092204;27;20035;-83
2021/05/11 01:11:58;;;;;;;5.28;2.08;;;14.90;99.90;;;;;;5096285;28;20034;-83
2021/05/11 01:14:28;;;;;;;4.68;2.50;;;14.90;99.90;;;;;;5091236;28;20092;-83
2021/05/11 01:16:59;;;;;;;6.22;2.28;;;14.90;99.90;;;;;;5087673;27;20220;-83
2021/05/11 01:19:37;;;;;;;5.28;2.08;;;14.90;99.90;;;;;;5113653;27;20036;-82
2021/05/11 01:24:42;;;;;;;5.50;2.58;;;14.80;99.90;;;;;;5103268;27;20040;-83
2021/05/11 01:30:12;;;;;;;6.78;2.70;;;14.80;99.90;;;;;;5109449;28;20058;-84
2021/05/11 02:24:02;;;;;;;4.72;2.42;;;14.60;99.90;;;;;;5112874;28;20437;-84
2021/05/11 02:26:30;;;;;;;4.85;2.35;;;14.60;99.90;;;;;;5096541;28;20035;-84
2021/05/11 02:28:57;;;;;;;4.72;2.00;;;14.60;99.90;;;;;;5096060;28;20054;-84
2021/05/11 02:31:23;;;;;;;4.75;2.20;;;14.60;99.90;;;;;;5113034;28;20166;-84
2021/05/11 02:33:56;;;;;;;5.80;1.80;;;14.60;99.90;;;;;;5114080;28;20063;-84
2021/05/11 02:36:22;;;;;;;3.38;1.95;;;14.60;99.90;;;;;;5096087;28;20311;-84
2021/05/11 02:38:47;;;;;;;3.38;1.80;;;14.60;99.90;;;;;;5062124;28;20125;-84
2021/05/11 02:41:13;;;;;;;3.00;1.88;;;14.60;99.90;;;;;;5095423;28;20479;-84
2021/05/11 02:43:40;;;;;;;4.20;2.53;;;14.60;99.90;;;;;;5097691;28;20059;-84
2021/05/11 02:46:06;;;;;;;5.82;2.53;;;14.60;99.90;;;;;;5095451;28;20096;-84
2021/05/11 02:48:32;;;;;;;4.90;2.65;;;14.50;99.90;;;;;;5095696;28;20429;-84
2021/05/11 02:50:57;;;;;;;5.20;2.25;;;14.50;99.90;;;;;;5095397;28;20067;-84
2021/05/11 02:53:23;;;;;;;6.25;2.85;;;14.50;99.90;;;;;;5095546;28;20044;-84
2021/05/11 02:55:49;;;;;;;6.28;2.50;;;14.50;99.90;;;;;;5095431;28;20475;-84
2021/05/11 02:58:15;;;;;;;6.47;2.90;;;14.40;99.90;;;;;;5078953;28;20035;-84
2021/05/11 03:00:42;;;;;;;4.60;2.70;;;14.50;99.90;;;;;;5098432;28;20524;-84
2021/05/11 03:03:08;;;;;;;6.90;3.17;;;14.50;99.90;;;;;;5082320;28;20039;-84
2021/05/11 03:05:34;;;;;;;4.57;2.90;;;14.50;99.90;;;;;;5099392;28;20352;-84
2021/05/11 03:08:00;;;;;;;3.70;2.60;;;14.50;99.90;;;;;;5117726;28;20525;-84
2021/05/11 03:10:26;;;;;;;6.90;3.13;;;14.50;99.90;;;;;;5098988;28;20036;-85
2021/05/11 03:12:51;;;;;;;7.95;3.20;;;14.50;99.90;;;;;;5099330;28;20051;-85
2021/05/11 03:15:17;;;;;;;5.05;2.75;;;14.50;99.90;;;;;;5099379;28;20059;-85
2021/05/11 03:17:43;;;;;;;4.75;2.90;;;14.50;99.90;;;;;;5117427;28;20077;-85
2021/05/11 03:20:13;;;;;;;5.43;2.95;;;14.50;99.90;;;;;;5082380;28;20426;-84
2021/05/11 03:22:39;;;;;;;5.72;3.10;;;14.50;99.90;;;;;;5099050;28;20544;-83
2021/05/11 03:25:05;;;;;;;3.97;2.75;;;14.50;99.90;;;;;;5099033;28;20059;-85
2021/05/11 03:27:32;;;;;;;4.72;2.78;;;14.50;99.90;;;;;;5117567;28;20446;-83
2021/05/11 03:29:58;;;;;;;5.55;2.90;;;14.50;99.90;;;;;;5098781;28;20463;-84
2021/05/11 03:32:24;;;;;;;8.30;3.53;;;14.50;99.90;;;;;;5065322;28;20503;-84
2021/05/11 03:34:50;;;;;;;5.35;3.50;;;14.50;99.90;;;;;;5098631;28;20062;-84
2021/05/11 03:37:19;;;;;;;4.55;2.67;;;14.40;99.90;;;;;;5116792;28;20156;-84
2021/05/11 03:39:45;;;;;;;4.97;3.05;;;14.50;99.90;;;;;;5098103;28;20038;-85
2021/05/11 03:44:52;;;;;;;5.13;3.17;;;14.50;99.90;;;;;;5099498;28;20048;-84
2021/05/11 03:47:20;;;;;;;5.20;3.28;;;14.50;99.90;;;;;;5081956;28;20134;-84
2021/05/11 03:49:47;;;;;;;6.90;3.17;;;14.50;99.90;;;;;;5098297;28;20034;-84
2021/05/11 03:52:14;;;;;;;5.18;2.60;;;14.50;99.90;;;;;;5098110;28;20160;-84
2021/05/11 03:54:40;;;;;;;5.35;3.00;;;14.50;99.90;;;;;;5098246;28;20044;-84
2021/05/11 03:57:06;;;;;;;6.38;2.75;;;14.40;99.90;;;;;;5081238;28;20395;-84
2021/05/11 03:59:35;;;;;;;4.75;2.83;;;14.50;99.90;;;;;;5097744;28;20368;-84
2021/05/11 04:02:01;;;;;;;5.95;3.20;;;14.40;99.90;;;;;;5081272;28;20411;-83
2021/05/11 04:04:27;;;;;;;5.68;2.70;;;14.40;99.90;;;;;;5113264;28;20035;-84
2021/05/11 04:06:53;;;;;;;4.55;2.63;;;14.40;99.90;;;;;;5085709;28;20077;-83
2021/05/11 04:09:40;;;;;;;5.78;3.30;;;14.50;99.90;;;;;;5092203;28;20039;-83
2021/05/11 04:17:18;;;;;;;5.60;2.92;;;14.50;99.90;;;;;;5110556;28;20050;-84
2021/05/11 04:19:43;;;;;;;5.15;2.92;;;14.50;99.90;;;;;;5088857;28;20032;-85
2021/05/11 04:22:09;;;;;;;4.38;2.85;;;14.40;99.90;;;;;;5085490;28;20073;-84
2021/05/11 04:24:36;;;;;;;5.32;2.95;;;14.50;99.90;;;;;;5109168;28;20058;-83
2021/05/11 04:27:03;;;;;;;5.25;2.90;;;14.40;99.90;;;;;;5088518;28;20476;-84
2021/05/11 04:29:29;;;;;;;4.50;3.00;;;14.50;99.90;;;;;;5075295;28;20035;-84
2021/05/11 04:31:54;;;;;;;6.97;3.25;;;14.50;99.90;;;;;;5058824;28;20065;-84
2021/05/11 04:34:20;;;;;;;5.13;3.05;;;14.50;99.90;;;;;;5110159;28;20475;-85
2021/05/11 04:36:46;;;;;;;5.05;2.90;;;14.50;99.90;;;;;;5088260;28;20040;-84
2021/05/11 04:39:12;;;;;;;5.30;2.80;;;14.50;99.90;;;;;;5075144;28;20068;-84
2021/05/11 04:41:38;;;;;;;5.15;2.83;;;14.50;99.90;;;;;;5110412;28;20435;-85
2021/05/11 04:44:04;;;;;;;3.78;2.35;;;14.60;99.90;;;;;;5074860;28;20062;-84
2021/05/11 04:46:48;;;;;;;5.68;3.58;;;14.60;99.90;;;;;;5070215;28;20085;-84
2021/05/11 04:49:14;;;;;;;;;;;14.60;99.90;;;;;;5082703;28;20475;-85
2021/05/11 04:51:59;;;;;;;5.70;2.58;;;14.50;99.90;;;;;;5109776;28;19969;-84
2021/05/11 04:54:25;;;;;;;5.10;2.92;;;14.60;99.90;;;;;;5108252;28;20111;-85
2021/05/11 04:56:52;;;;;;;7.20;3.13;;;14.60;99.90;;;;;;5082167;27;20031;-85
2021/05/11 04:59:17;;;;;;;6.18;3.53;;;14.60;99.90;;;;;;5081119;28;20120;-84
2021/05/11 05:01:46;;;;;;;7.20;3.45;;;14.60;99.90;;;;;;5075412;28;20070;-83
2021/05/11 05:04:15;;;;;;;5.40;3.00;;;14.60;99.90;;;;;;5091425;27;20042;-85
2021/05/11 05:06:40;;;;;;;4.93;2.70;;;14.60;99.90;;;;;;5103805;28;20410;-85
2021/05/11 05:09:06;;;;;;;6.82;2.83;;;14.60;99.90;;;;;;5099358;27;20051;-84
2021/05/11 05:11:34;;;;;;;5.53;3.00;;;14.70;99.90;;;;;;5079709;28;20066;-85
2021/05/11 05:14:00;;;;;;;5.05;2.60;;;14.60;99.90;;;;;;5089447;27;20406;-84
2021/05/11 05:16:26;;;;;;;4.45;2.78;;;14.70;99.90;;;;;;5088741;28;20453;-84
2021/05/11 05:18:54;;;;;;;5.50;2.63;;;14.70;99.90;;;;;;5115407;27;20394;-84
2021/05/11 05:21:20;;;;;;;4.45;2.90;;;14.70;99.90;;;;;;5081119;28;20036;-85
2021/05/11 05:23:49;;;;;;;4.65;2.38;;;14.70;99.90;;;;;;5079792;27;20031;-84
2021/05/11 05:26:19;;;;;;;7.55;3.25;;;14.70;99.90;;;;;;5106053;27;20042;-84
2021/05/11 05:28:45;;;;;;;5.65;3.72;;;14.70;99.90;;;;;;5088964;28;20143;-84
2021/05/11 05:31:12;;;;;;;7.47;3.75;;;14.70;99.90;;;;;;5120122;27;20513;-83
2021/05/11 05:33:39;;;;;;;8.07;3.97;;;14.80;99.90;;;;;;5098442;28;20031;-85
2021/05/11 05:36:06;;;;;;;9.55;4.07;;;14.80;99.90;;;;;;5090623;27;20036;-85
2021/05/11 05:38:33;;;;;;;8.55;4.28;;;14.80;99.90;;;;;;5124605;27;20511;-85
2021/05/11 05:41:10;;;;;;;8.05;5.05;;;14.80;99.90;;;;;;5091529;28;20178;-85
2021/05/11 05:43:36;;;;;;;8.82;5.03;;;14.70;99.90;;;;;;5089199;27;20035;-85
2021/05/11 05:46:05;;;;;;;8.15;4.78;;;14.70;99.90;;;;;;5076077;28;20044;-85
2021/05/11 05:48:32;;;;;;;7.88;5.10;;;14.70;99.90;;;;;;5106412;28;20067;-84
2021/05/11 05:51:03;;;;;;;6.57;4.15;;;14.70;99.90;;;;;;5090479;28;20039;-85
2021/05/11 05:53:43;;;;;;;6.63;3.80;;;14.70;99.90;;;;;;5105564;28;20410;-85
2021/05/11 05:56:13;;;;;;;6.38;3.28;;;14.80;99.90;;;;;;5072523;28;20071;-84
2021/05/11 05:58:42;;;;;;;4.35;2.80;;;14.80;99.90;;;;;;5101024;28;20036;-85
2021/05/11 06:01:08;;;;;;;4.65;3.08;;;14.80;99.90;;;;;;5080178;28;20036;-84
2021/05/11 06:06:12;;;;;;;5.07;2.70;;;15.00;99.90;;;;;;5108236;28;20035;-84
2021/05/11 06:08:40;;;;;;;4.18;2.42;;;15.10;99.90;;;;;;5093069;28;20510;-85
2021/05/11 06:13:42;;;;;;;5.47;3.30;;;15.20;99.90;;;;;;5089797;28;20484;-84
2021/05/11 06:18:57;;;;;;;7.93;4.22;;;15.40;99.90;;;;;;5094047;28;20047;-85
2021/05/11 06:21:23;;;;;;;7.38;3.65;;;15.40;99.90;;;;;;5098435;28;20039;-85
2021/05/11 06:23:50;;;;;;;6.30;3.70;;;15.50;99.90;;;;;;5066677;28;20078;-85
2021/05/11 06:26:19;;;;;;;5.78;3.53;;;15.50;99.90;;;;;;5104090;28;20044;-85
2021/05/11 06:28:49;;;;;;;7.07;4.50;;;15.50;99.90;;;;;;5071545;28;20468;-85
2021/05/11 06:31:21;;;;;;;9.02;4.78;;;15.60;99.90;;;;;;5100239;28;20043;-85
2021/05/11 06:33:50;;;;;;;7.47;3.95;;;15.60;99.90;;;;;;5072904;28;20036;-85
2021/05/11 06:36:16;;;;;;;9.18;5.32;;;15.70;99.90;;;;;;5092647;28;20051;-85
2021/05/11 06:38:47;;;;;;;8.52;5.72;;;15.70;99.90;;;;;;5104571;28;20040;-85
2021/05/11 06:41:14;;;;;;;9.27;5.40;;;15.70;99.90;;;;;;5101561;28;20028;-86
2021/05/11 06:43:43;;;;;;;7.88;3.97;;;15.80;99.90;;;;;;5097323;28;20471;-85
2021/05/11 06:49:13;;;;;;;6.65;3.28;;;15.90;99.90;;;;;;5098080;28;20040;-85
2021/05/11 06:54:12;;;;;;;6.97;4.50;;;16.00;99.90;;;;;;5092764;28;20044;-86
2021/05/11 06:56:44;;;;;;;6.60;4.18;;;16.10;99.90;;;;;;5095113;27;20042;-85
2021/05/11 06:59:22;;;;;;;9.30;4.93;;;16.20;99.90;;;;;;5102070;28;20488;-86
2021/05/11 07:01:48;;;;;;;7.53;3.85;;;16.30;99.90;;;;;;5093377;28;20447;-85
2021/05/11 07:04:15;;;;;;;5.97;3.83;;;16.40;99.90;;;;;;5092343;28;20032;-85
2021/05/11 07:06:43;;;;;;;6.05;4.05;;;16.50;99.90;;;;;;5108577;28;20040;-85
2021/05/11 07:09:13;;;;;;;5.93;3.40;;;16.50;99.90;;;;;;5103371;27;20039;-84
2021/05/11 07:14:11;;;;;;;6.82;3.10;;;16.90;99.90;;;;;;5112002;28;20050;-85
2021/05/11 07:16:37;;;;;;;4.43;2.95;;;17.10;99.90;;;;;;5091548;28;20040;-85
2021/05/11 07:19:04;;;;;;;5.40;3.20;;;17.20;99.90;;;;;;5102417;27;20039;-85
2021/05/11 07:21:30;;;;;;;5.53;3.00;;;17.30;99.90;;;;;;5119467;27;20039;-84
2021/05/11 07:23:57;;;;;;;4.88;3.20;;;17.40;99.90;;;;;;5096088;28;20027;-85
2021/05/11 07:26:28;;;;;;;9.25;4.25;;;17.50;99.90;;;;;;5111719;28;20024;-85
2021/05/11 07:29:11;;;;;;;6.22;3.70;;;17.60;99.90;;;;;;5106305;28;20421;-84
2021/05/11 07:31:40;;;;;;;7.53;3.53;;;17.70;99.90;;;;;;5111572;28;20035;-85
2021/05/11 07:34:08;;;;;;;6.35;2.75;;;17.90;99.90;;;;;;5080394;27;20653;-86
2021/05/11 07:36:36;;;;;;;6.40;3.22;;;18.10;99.90;;;;;;5093610;28;20430;-85
2021/05/11 07:39:01;;;;;;;6.72;3.22;;;18.30;99.90;;;;;;5084828;27;20494;-86
2021/05/11 07:41:28;;;;;;;5.75;2.97;;;18.40;99.90;;;;;;5100655;28;20115;-85
2021/05/11 07:43:57;;;;;;;4.60;2.95;;;18.50;99.90;;;;;;5110944;28;20036;-84
2021/05/11 07:56:28;;;;;;;3.60;2.22;;;18.70;99.90;;;;;;5093523;28;20043;-84
2021/05/11 08:05:35;;;;;;;5.13;2.78;;;19.30;99.90;;;;;;5114520;27;20036;-85
2021/05/11 08:16:26;;;;;;;4.53;2.35;;;19.00;99.70;;;;;;5111519;27;20113;-86
2021/05/11 08:29:43;;;;;;;6.10;2.92;;;18.50;99.40;;;;;;5111029;28;20163;-85
2021/05/11 08:32:09;;;;;;;4.35;2.65;;;18.50;99.50;;;;;;5095598;27;20043;-85
2021/05/11 08:34:35;;;;;;;5.55;2.88;;;18.40;99.60;;;;;;5080242;27;20034;-85
2021/05/11 08:37:02;;;;;;;4.72;2.60;;;18.40;99.60;;;;;;5086670;28;20028;-85
2021/05/11 08:39:29;;;;;;;4.82;2.75;;;18.30;99.50;;;;;;5104379;27;20030;-84
2021/05/11 08:41:55;;;;;;;4.72;2.30;;;18.30;99.70;;;;;;5095880;28;20039;-85
2021/05/11 08:44:22;;;;;;;7.05;3.38;;;18.30;99.70;;;;;;5107752;28;20036;-85
2021/05/11 08:46:48;;;;;;;4.22;2.50;;;18.20;99.50;;;;;;5110196;28;20032;-85
2021/05/11 08:49:16;;;;;;;6.05;2.30;;;18.20;99.50;;;;;;5101089;28;20155;-85
2021/05/11 08:51:56;;;;;;;4.70;2.38;;;18.20;99.50;;;;;;5106286;27;20093;-86
2021/05/11 08:54:44;;;;;;;3.97;2.10;;;18.20;99.50;;;;;;5081782;27;20039;-86
2021/05/11 09:15:06;;;;;;;6.22;2.65;;;18.00;99.90;;;;;;5121788;27;20130;-85
2021/05/11 09:28:34;;;;;;;4.70;2.10;;;18.00;99.80;;;;;;5118979;27;20082;-86
2021/05/11 09:34:16;;;;;;;4.68;2.53;;;18.10;99.90;;;;;;5132356;27;20039;-85
2021/05/11 09:57:22;;;;;;;7.55;3.78;;;17.80;99.90;;;;;;5135144;27;20445;-85
2021/05/11 10:47:06;;;;;;;6.15;2.05;;;22.50;92.90;;;;;;5113455;28;20388;-83
2021/05/11 10:49:52;;;;;;;6.68;2.80;;;22.40;93.50;;;;;;5095308;28;20036;-84
2021/05/11 10:52:43;;;;;;;4.15;1.90;;;22.30;92.80;;;;;;5113323;28;20484;-84
2021/05/11 10:55:24;;;;;;;4.40;2.28;;;22.10;93.20;;;;;;5081855;28;20028;-84
2021/05/11 10:58:08;;;;;;;5.38;2.17;;;22.40;93.10;;;;;;5112256;28;20488;-84
2021/05/11 11:03:27;;;;;;;4.60;1.88;;;22.50;93.20;;;;;;5113631;28;20031;-84
2021/05/11 11:06:00;;;;;;;4.43;1.65;;;22.50;93.30;;;;;;5090989;28;20043;-83
2021/05/11 11:08:39;;;;;;;4.65;1.92;;;22.40;93.00;;;;;;5091357;28;20369;-83
2021/05/11 11:11:25;;;;;;;3.25;1.70;;;22.20;92.10;;;;;;5108895;28;20031;-84
2021/05/11 11:13:54;;;;;;;5.93;2.70;;;22.00;92.80;;;;;;5096682;28;20043;-84
2021/05/11 11:16:21;;;;;;;6.60;2.60;;;21.70;92.40;;;;;;5092322;28;20051;-84
2021/05/11 11:19:08;;;;;;;5.63;1.95;;;21.50;92.40;;;;;;5119473;28;20046;-84
2021/05/11 11:24:37;;;;;;;4.32;1.77;;;21.80;92.10;;;;;;5113912;28;20051;-84
2021/05/11 11:27:08;;;;;;;4.78;2.08;;;22.10;92.00;;;;;;5098587;28;20107;-84
2021/05/11 11:29:35;;;;;;;3.85;1.70;;;22.40;91.60;;;;;;5096054;28;20031;-84
2021/05/11 11:32:02;;;;;;;6.15;2.42;;;22.30;91.60;;;;;;5113081;27;20387;-85
2021/05/11 11:34:34;;;;;;;5.13;2.55;;;22.10;92.10;;;;;;5079404;28;20038;-85
2021/05/11 11:37:08;;;;;;;6.60;2.60;;;21.80;92.40;;;;;;5116375;28;20027;-85
2021/05/11 11:39:43;;;;;;;5.85;3.10;;;21.30;92.90;;;;;;5111854;27;20047;-85
2021/05/11 11:42:30;;;;;;;7.13;2.40;;;20.90;93.40;;;;;;5099193;28;20501;-85
2021/05/11 11:45:01;;;;;;;5.05;2.50;;;20.50;93.60;;;;;;5097295;28;20031;-84
2021/05/11 11:47:41;;;;;;;4.50;2.22;;;20.30;93.70;;;;;;5110019;27;20460;-85
2021/05/11 11:50:11;;;;;;;6.63;2.45;;;19.90;94.20;;;;;;5097631;28;20514;-85
2021/05/11 11:52:49;;;;;;;5.25;2.17;;;19.70;95.00;;;;;;5097638;28;20047;-86
2021/05/11 11:57:57;;;;;;;3.92;1.80;;;19.40;95.50;;;;;;5104461;28;20043;-85
2021/05/11 12:00:37;;;;;;;3.90;1.95;;;19.30;95.70;;;;;;5102744;28;20031;-86
2021/05/11 12:03:10;;;;;;;4.72;2.10;;;19.20;95.80;;;;;;5093909;28;20364;-85
2021/05/11 12:05:59;;;;;;;4.28;2.13;;;19.10;96.20;;;;;;5083605;28;20581;-85
2021/05/11 12:08:31;;;;;;;5.97;1.92;;;19.00;96.50;;;;;;5094724;28;20032;-85
2021/05/11 12:11:05;;;;;;;6.85;2.00;;;18.90;96.40;;;;;;5077430;28;20518;-84
2021/05/11 12:13:36;;;;;;;5.95;2.50;;;18.90;96.50;;;;;;5092069;28;20384;-84
2021/05/11 12:16:17;;;;;;;3.72;2.20;;;18.80;96.50;;;;;;5082340;28;20039;-85
2021/05/11 12:19:14;;;;;;;4.45;2.40;;;18.80;96.50;;;;;;5081507;28;20055;-83
2021/05/11 12:22:04;;;;;;;8.95;2.78;;;18.70;96.60;;;;;;5082709;28;20034;-84
2021/05/11 12:24:36;;;;;;;7.13;2.55;;;18.60;97.00;;;;;;5089495;28;20118;-85
2021/05/11 12:27:15;;;;;;;7.80;3.13;;;18.50;97.20;;;;;;5078553;28;20046;-85
2021/05/11 12:30:04;;;;;;;5.28;2.92;;;18.40;97.00;;;;;;5077366;28;20028;-84
2021/05/11 12:33:02;;;;;;;4.35;2.70;;;18.40;97.00;;;;;;5110795;28;20055;-84
2021/05/11 12:35:37;;;;;;;4.35;2.45;;;18.40;97.20;;;;;;5100055;28;20747;-84
2021/05/11 12:38:26;;;;;;;6.55;3.53;;;18.40;97.10;;;;;;5104392;28;20047;-83
2021/05/11 12:43:51;;;;;;;6.13;3.78;;;18.40;97.20;;;;;;5094212;28;20032;-84
2021/05/11 12:46:36;;;;;;;5.47;3.72;;;18.50;97.10;;;;;;5088337;28;20110;-85
2021/05/11 12:49:22;;;;;;;6.43;4.07;;;18.50;97.30;;;;;;5093728;28;20158;-86
2021/05/11 12:51:54;;;;;;;6.75;3.88;;;18.50;97.40;;;;;;5105991;28;20062;-84
2021/05/11 12:54:32;;;;;;;6.57;4.20;;;18.50;97.90;;;;;;5113327;27;20039;-85
2021/05/11 12:57:07;;;;;;;6.93;4.53;;;18.50;98.00;;;;;;5098322;28;20047;-84
2021/05/11 13:02:50;;;;;;;7.93;4.68;;;18.40;98.40;;;;;;5063664;28;20029;-83
2021/05/11 13:17:06;;;;;;;5.90;3.50;;;17.80;99.70;;;;;;5059808;28;20041;-84
2021/05/11 13:22:24;;;;;;;6.78;3.17;;;17.40;99.90;;;;;;5060992;28;20477;-85
2021/05/11 13:25:35;;;;;;;7.60;3.53;;;17.30;99.90;;;;;;5037867;28;20041;-85
2021/05/11 13:27:55;;;;;;;5.55;3.00;;;17.20;99.90;;;;;;5050894;28;20389;-86
2021/05/11 13:35:20;;;;;;;4.57;2.30;;;17.20;99.90;;;;;;5054285;28;20033;-85
2021/05/11 13:37:49;;;;;;;5.05;2.47;;;17.20;99.90;;;;;;5062834;28;20483;-85
2021/05/11 13:40:18;;;;;;;6.40;2.92;;;17.10;99.90;;;;;;5050688;27;20041;-85
2021/05/11 13:42:44;;;;;;;5.22;2.58;;;17.10;99.90;;;;;;5099296;28;20056;-85
2021/05/11 13:45:10;;;;;;;4.32;2.60;;;17.00;99.90;;;;;;5112500;28;20063;-84
2021/05/11 13:47:40;;;;;;;5.78;2.83;;;17.00;99.90;;;;;;5113258;28;20119;-86
2021/05/11 13:50:09;;;;;;;5.50;2.35;;;16.90;99.90;;;;;;5105133;27;20453;-85
2021/05/11 13:52:35;;;;;;;4.93;2.40;;;16.90;99.90;;;;;;5099291;28;20083;-86
2021/05/11 13:55:07;;;;;;;4.35;2.92;;;16.90;99.90;;;;;;5094069;28;20039;-85
2021/05/11 14:03:07;;;;;;;6.00;2.42;;;16.70;99.90;;;;;;5115473;27;20054;-85
2021/05/11 14:05:34;;;;;;;6.22;2.80;;;16.70;99.90;;;;;;5084751;28;20032;-85
2021/05/11 14:08:00;;;;;;;4.85;2.63;;;16.70;99.90;;;;;;5089129;28;20117;-84
2021/05/11 14:10:27;;;;;;;6.43;2.70;;;16.70;99.90;;;;;;5080353;28;20073;-85
2021/05/11 14:13:05;;;;;;;4.18;2.47;;;16.70;99.90;;;;;;5082782;28;20059;-85
2021/05/11 14:15:33;;;;;;;3.63;1.70;;;16.70;99.90;;;;;;5107834;28;20092;-85
2021/05/11 14:18:00;;;;;;;5.65;2.00;;;16.70;99.90;;;;;;5083722;28;20040;-85
2021/05/11 14:20:30;;;;;;;3.20;1.70;;;16.80;99.90;;;;;;5107262;28;20065;-85
2021/05/11 14:22:56;;;;;;;7.40;2.13;;;16.80;99.90;;;;;;5078049;28;20043;-85
2021/05/11 14:25:23;;;;;;;3.30;1.80;;;16.90;99.90;;;;;;5110921;28;20140;-83
2021/05/11 14:27:50;;;;;;;3.60;1.90;;;16.90;99.90;;;;;;5087729;28;20063;-85
2021/05/11 14:30:18;;;;;;;5.45;1.90;;;16.90;99.90;;;;;;5084392;28;20070;-83
2021/05/11 14:32:47;;;;;;;5.32;2.55;;;16.80;99.90;;;;;;5107017;28;20036;-83
2021/05/11 14:35:14;;;;;;;5.38;2.72;;;16.80;99.90;;;;;;5078595;28;20061;-84
2021/05/11 14:37:40;;;;;;;4.40;2.20;;;16.70;99.90;;;;;;5088762;28;20048;-84
2021/05/11 14:40:08;;;;;;;5.95;2.30;;;16.80;99.90;;;;;;5086651;28;20047;-84
2021/05/11 14:42:35;;;;;;;5.20;2.15;;;16.80;99.90;;;;;;5108893;28;20135;-84
2021/05/11 14:45:04;;;;;;;4.72;2.33;;;16.80;99.90;;;;;;5077621;28;20496;-85
2021/05/11 14:47:31;;;;;;;4.35;2.03;;;16.80;99.90;;;;;;5107014;28;20661;-85
2021/05/11 14:49:57;;;;;;;6.50;2.50;;;16.90;99.90;;;;;;5083586;28;20101;-84
2021/05/11 14:52:26;;;;;;;6.07;3.30;;;16.90;99.90;;;;;;5077521;28;20155;-84
2021/05/11 14:54:52;;;;;;;7.93;2.65;;;16.90;99.90;;;;;;5087081;28;20039;-84
2021/05/11 14:57:18;;;;;;;5.32;3.03;;;16.90;99.90;;;;;;5090299;28;20188;-85
2021/05/11 14:59:45;;;;;;;3.95;2.45;;;17.00;99.90;;;;;;5108529;28;20053;-84
2021/05/11 15:02:13;;;;;;;5.68;2.97;;;17.00;99.90;;;;;;5092401;28;20147;-84
2021/05/11 15:04:43;;;;;;;6.97;3.42;;;17.00;99.90;;;;;;5090025;28;20077;-85
2021/05/11 15:07:12;;;;;;;5.60;3.25;;;17.00;99.90;;;;;;5093710;28;20447;-83
2021/05/11 15:09:38;;;;;;;6.82;4.30;;;17.00;99.90;;;;;;5092844;28;20031;-85
2021/05/11 15:12:11;;;;;;;6.18;4.00;;;17.00;99.90;;;;;;5083538;28;20151;-84
2021/05/11 15:14:38;;;;;;;6.13;3.25;;;16.90;99.90;;;;;;5093829;28;20039;-85
2021/05/11 15:17:58;;;;;;;5.57;3.67;;;16.80;99.90;;;;;;5094011;28;20031;-85
2021/05/11 15:20:12;;;;;;;6.20;3.33;;;16.80;99.90;;;;;;5099174;28;20032;-86
2021/05/11 15:22:38;;;;;;;5.18;3.28;;;16.80;99.90;;;;;;5090004;28;20121;-85
2021/05/11 15:25:25;;;;;;;5.85;3.88;;;16.80;99.90;;;;;;5083888;28;20040;-86
2021/05/11 15:28:29;;;;;;;6.75;4.82;;;16.90;99.90;;;;;;5078537;28;20050;-85
2021/05/11 15:31:16;;;;;;;7.22;5.18;;;16.80;99.90;;;;;;5093209;28;20028;-84
2021/05/11 15:36:45;;;;;;;7.53;6.38;;;16.70;99.90;;;;;;5103621;28;20078;-85
2021/05/11 15:39:13;;;;;;;7.95;6.45;;;16.60;99.90;;;;;;5097475;28;20039;-85
2021/05/11 15:41:58;;;;;;;9.18;6.65;;;16.60;99.90;;;;;;5096117;28;20032;-85
2021/05/11 15:50:33;;;;;;;9.00;7.65;;;16.60;99.90;;;;;;5105208;28;20038;-85
2021/05/11 15:55:48;;;;;;;9.50;7.32;;;16.60;99.90;;;;;;5097629;28;20046;-86
2021/05/11 15:58:17;;;;;;;8.18;6.85;;;16.60;99.90;;;;;;5077087;28;20082;-86
2021/05/11 16:00:47;;;;;;;10.25;7.55;;;16.60;99.90;;;;;;5074997;28;20038;-85
2021/05/11 16:03:19;;;;;;;9.10;8.20;;;16.60;99.90;;;;;;5103606;28;20040;-85
2021/05/11 16:06:07;;;;;;;9.60;7.60;;;16.60;99.90;;;;;;5082408;28;20116;-85
2021/05/11 16:08:33;;;;;;;9.52;6.93;;;16.60;99.90;;;;;;5087433;28;20048;-86
2021/05/11 16:11:04;;;;;;;9.05;7.35;;;16.60;99.90;;;;;;5084199;28;20027;-84
2021/05/11 16:14:00;;;;;;;8.35;6.82;;;16.60;99.90;;;;;;5082672;28;20089;-86
2021/05/11 16:16:44;;;;;;;8.52;6.13;;;16.60;99.90;;;;;;5085501;28;20108;-86
2021/05/11 16:22:21;;;;;;;6.75;6.05;;;16.60;99.90;;;;;;5101185;28;20045;-86
2021/05/11 16:25:06;;;;;;;6.20;5.55;;;16.60;99.90;;;;;;5081684;28;20031;-87
2021/05/11 16:30:40;;;;;;;7.07;5.70;;;16.70;99.90;;;;;;5097385;28;20398;-87
2021/05/11 16:36:29;;;;;;;6.75;5.35;;;16.70;99.90;;;;;;5099391;28;20047;-85
2021/05/11 16:39:16;;;;;;;8.52;5.28;;;16.70;99.90;;;;;;5081863;28;20040;-86
2021/05/11 16:41:46;;;;;;;7.63;5.40;;;16.70;99.90;;;;;;5101922;28;20100;-86
2021/05/11 16:44:15;;;;;;;6.45;5.43;;;16.70;99.90;;;;;;5083046;28;20633;-86
2021/05/11 16:46:41;;;;;;;8.07;5.30;;;16.70;99.90;;;;;;5083592;28;20484;-85
2021/05/11 16:49:26;;;;;;;7.32;5.55;;;16.70;99.90;;;;;;5080317;28;20036;-86
2021/05/11 16:54:37;;;;;;;6.32;4.55;;;16.70;99.90;;;;;;5112516;27;20034;-85
2021/05/11 16:57:08;;;;;;;7.22;4.70;;;16.70;99.90;;;;;;5116251;27;20051;-85
2021/05/11 17:00:12;;;;;;;6.70;5.07;;;16.70;99.90;;;;;;5100387;27;20075;-86
2021/05/11 17:02:45;;;;;;;7.22;4.95;;;16.70;99.90;;;;;;5112910;27;20092;-86
2021/05/11 17:07:58;;;;;;;7.10;5.28;;;16.60;99.90;;;;;;5117898;27;20559;-86
2021/05/11 17:14:06;;;;;;;7.15;4.63;;;16.60;99.90;;;;;;5115359;27;20018;-86
2021/05/11 17:16:36;;;;;;;5.50;4.22;;;16.60;99.90;;;;;;5114426;27;20035;-85
2021/05/11 17:19:09;;;;;;;9.32;5.63;;;16.60;99.90;;;;;;5098043;28;20249;-87
2021/05/11 17:21:55;;;;;;;5.80;4.28;;;16.60;99.90;;;;;;5099384;27;20032;-84
2021/05/11 17:24:59;;;;;;;6.13;4.70;;;16.60;99.90;;;;;;5095947;27;20035;-87
2021/05/11 17:27:32;;;;;;;6.57;4.47;;;16.60;99.90;;;;;;5097791;27;20039;-85
2021/05/11 17:30:20;;;;;;;7.88;4.70;;;16.60;99.90;;;;;;5100329;27;20035;-86
2021/05/11 17:33:05;;;;;;;6.97;4.80;;;16.60;99.90;;;;;;5095982;27;20118;-86
2021/05/11 17:35:32;;;;;;;6.78;4.70;;;16.60;99.90;;;;;;5103913;27;20068;-84
2021/05/11 17:38:01;;;;;;;6.28;4.72;;;16.60;99.90;;;;;;5083730;27;20046;-85
2021/05/11 17:40:30;;;;;;;5.82;4.38;;;16.50;99.90;;;;;;5081145;28;20092;-86
2021/05/11 17:42:58;;;;;;;6.70;4.28;;;16.50;99.90;;;;;;5119380;27;20036;-85
2021/05/11 17:45:27;;;;;;;5.47;4.30;;;16.50;99.90;;;;;;5096361;27;20035;-85
2021/05/11 17:48:00;;;;;;;7.22;5.18;;;16.50;99.90;;;;;;5117284;27;20035;-85
2021/05/11 17:53:18;;;;;;;7.30;5.90;;;16.50;99.90;;;;;;5114333;27;20062;-85
2021/05/11 17:56:03;;;;;;;8.43;7.32;;;16.40;99.90;;;;;;5111679;27;20074;-86